sensor_id;sensor_type;location;lat;lon;timestamp;P1;durP1;ratioP1;P2;durP2;ratioP2
62110;SDS011;48102;47.526;19.072;2022-10-15T03:51:22;18.08;;;11.70;;
62110;SDS011;48102;47.526;19.072;2022-10-15T03:54:30;18.23;;;12.95;;
62110;SDS011;48102;47.526;19.072;2022-10-15T03:57:32;17.08;;;12.30;;
62110;SDS011;48102;47.526;19.072;2022-10-15T04:00:40;15.70;;;11.88;;
62110;SDS011;48102;47.526;19.072;2022-10-15T04:03:44;21.27;;;13.70;;
62110;SDS011;48102;47.526;19.072;2022-10-15T04:06:49;19.83;;;14.20;;
62110;SDS011;48102;47.526;19.072;2022-10-15T04:09:53;23.25;;;13.60;;
62110;SDS011;48102;47.526;19.072;2022-10-15T04:12:58;20.40;;;12.48;;
62110;SDS011;48102;47.526;19.072;2022-10-15T04:19:06;19.83;;;10.65;;
62110;SDS011;48102;47.526;19.072;2022-10-15T04:22:13;21.17;;;11.80;;
62110;SDS011;48102;47.526;19.072;2022-10-15T04:25:16;17.05;;;11.82;;
62110;SDS011;48102;47.526;19.072;2022-10-15T04:28:19;16.25;;;11.40;;
62110;SDS011;48102;47.526;19.072;2022-10-15T04:31:22;15.43;;;11.68;;
62110;SDS011;48102;47.526;19.072;2022-10-15T04:34:26;17.35;;;12.20;;
62110;SDS011;48102;47.526;19.072;2022-10-15T04:40:35;17.98;;;12.48;;
62110;SDS011;48102;47.526;19.072;2022-10-15T04:43:38;19.90;;;12.10;;
62110;SDS011;48102;47.526;19.072;2022-10-15T04:46:42;17.17;;;10.60;;
62110;SDS011;48102;47.526;19.072;2022-10-15T04:49:46;14.55;;;11.65;;
62110;SDS011;48102;47.526;19.072;2022-10-15T04:52:50;21.95;;;11.98;;
62110;SDS011;48102;47.526;19.072;2022-10-15T04:55:53;18.12;;;11.40;;
62110;SDS011;48102;47.526;19.072;2022-10-15T04:59:05;14.38;;;11.12;;
62110;SDS011;48102;47.526;19.072;2022-10-15T05:02:11;18.80;;;11.55;;
62110;SDS011;48102;47.526;19.072;2022-10-15T05:08:18;16.77;;;10.15;;
62110;SDS011;48102;47.526;19.072;2022-10-15T05:11:25;15.80;;;10.73;;
62110;SDS011;48102;47.526;19.072;2022-10-15T05:14:28;19.98;;;11.82;;
62110;SDS011;48102;47.526;19.072;2022-10-15T05:17:36;16.02;;;9.90;;
62110;SDS011;48102;47.526;19.072;2022-10-15T05:20:39;17.08;;;11.80;;
62110;SDS011;48102;47.526;19.072;2022-10-15T05:24:03;16.42;;;10.90;;
62110;SDS011;48102;47.526;19.072;2022-10-15T05:27:13;16.70;;;12.05;;
62110;SDS011;48102;47.526;19.072;2022-10-15T05:30:16;15.10;;;11.73;;
62110;SDS011;48102;47.526;19.072;2022-10-15T05:36:24;21.33;;;11.68;;
62110;SDS011;48102;47.526;19.072;2022-10-15T05:39:28;14.15;;;10.85;;
62110;SDS011;48102;47.526;19.072;2022-10-15T05:42:31;16.40;;;11.90;;
62110;SDS011;48102;47.526;19.072;2022-10-15T05:45:34;19.83;;;12.98;;
62110;SDS011;48102;47.526;19.072;2022-10-15T05:51:39;17.23;;;11.15;;
62110;SDS011;48102;47.526;19.072;2022-10-15T05:54:43;17.52;;;11.38;;
62110;SDS011;48102;47.526;19.072;2022-10-15T05:57:45;14.90;;;11.15;;
62110;SDS011;48102;47.526;19.072;2022-10-15T06:00:54;15.27;;;10.68;;
62110;SDS011;48102;47.526;19.072;2022-10-15T06:03:59;13.18;;;11.25;;
62110;SDS011;48102;47.526;19.072;2022-10-15T06:07:04;15.90;;;11.38;;
62110;SDS011;48102;47.526;19.072;2022-10-15T06:10:07;15.95;;;11.88;;
62110;SDS011;48102;47.526;19.072;2022-10-15T06:13:10;16.25;;;11.43;;
62110;SDS011;48102;47.526;19.072;2022-10-15T06:19:23;19.62;;;11.27;;
62110;SDS011;48102;47.526;19.072;2022-10-15T06:22:31;15.45;;;11.32;;
62110;SDS011;48102;47.526;19.072;2022-10-15T06:25:34;16.45;;;10.88;;
62110;SDS011;48102;47.526;19.072;2022-10-15T06:28:37;18.17;;;10.23;;
62110;SDS011;48102;47.526;19.072;2022-10-15T06:31:41;15.32;;;10.57;;
62110;SDS011;48102;47.526;19.072;2022-10-15T06:34:44;15.85;;;9.68;;
62110;SDS011;48102;47.526;19.072;2022-10-15T06:37:46;15.70;;;11.00;;
62110;SDS011;48102;47.526;19.072;2022-10-15T06:40:50;15.80;;;10.93;;
62110;SDS011;48102;47.526;19.072;2022-10-15T06:43:52;12.82;;;10.38;;
62110;SDS011;48102;47.526;19.072;2022-10-15T06:49:59;14.27;;;9.25;;
62110;SDS011;48102;47.526;19.072;2022-10-15T06:56:05;14.40;;;9.15;;
62110;SDS011;48102;47.526;19.072;2022-10-15T06:59:10;15.23;;;10.40;;
62110;SDS011;48102;47.526;19.072;2022-10-15T07:02:12;14.05;;;9.40;;
62110;SDS011;48102;47.526;19.072;2022-10-15T07:05:15;14.63;;;10.57;;
62110;SDS011;48102;47.526;19.072;2022-10-15T07:08:18;13.90;;;9.10;;
62110;SDS011;48102;47.526;19.072;2022-10-15T07:11:21;14.00;;;9.07;;
62110;SDS011;48102;47.526;19.072;2022-10-15T07:14:24;10.82;;;8.70;;
62110;SDS011;48102;47.526;19.072;2022-10-15T07:17:27;10.55;;;8.52;;
62110;SDS011;48102;47.526;19.072;2022-10-15T07:20:31;10.40;;;8.32;;
62110;SDS011;48102;47.526;19.072;2022-10-15T07:26:36;13.18;;;8.55;;
62110;SDS011;48102;47.526;19.072;2022-10-15T07:29:39;11.07;;;7.93;;
62110;SDS011;48102;47.526;19.072;2022-10-15T07:32:41;12.37;;;8.35;;
62110;SDS011;48102;47.526;19.072;2022-10-15T07:35:48;12.93;;;9.05;;
62110;SDS011;48102;47.526;19.072;2022-10-15T07:38:50;11.88;;;8.52;;
62110;SDS011;48102;47.526;19.072;2022-10-15T07:41:53;9.32;;;7.78;;
62110;SDS011;48102;47.526;19.072;2022-10-15T07:44:55;13.75;;;9.27;;
62110;SDS011;48102;47.526;19.072;2022-10-15T07:51:02;11.20;;;8.65;;
62110;SDS011;48102;47.526;19.072;2022-10-15T07:54:07;11.43;;;8.07;;
62110;SDS011;48102;47.526;19.072;2022-10-15T07:57:09;10.30;;;8.13;;
62110;SDS011;48102;47.526;19.072;2022-10-15T08:03:14;12.98;;;8.40;;
62110;SDS011;48102;47.526;19.072;2022-10-15T08:06:17;12.60;;;8.13;;
62110;SDS011;48102;47.526;19.072;2022-10-15T08:09:20;10.50;;;7.90;;
62110;SDS011;48102;47.526;19.072;2022-10-15T08:12:23;12.95;;;8.68;;
62110;SDS011;48102;47.526;19.072;2022-10-15T08:18:28;9.75;;;7.28;;
62110;SDS011;48102;47.526;19.072;2022-10-15T08:21:31;14.80;;;9.00;;
62110;SDS011;48102;47.526;19.072;2022-10-15T08:24:34;12.77;;;9.65;;
62110;SDS011;48102;47.526;19.072;2022-10-15T08:27:39;14.68;;;8.60;;
62110;SDS011;48102;47.526;19.072;2022-10-15T08:30:42;12.90;;;8.52;;
62110;SDS011;48102;47.526;19.072;2022-10-15T08:33:45;9.98;;;7.53;;
62110;SDS011;48102;47.526;19.072;2022-10-15T08:36:48;10.63;;;8.23;;
62110;SDS011;48102;47.526;19.072;2022-10-15T08:39:51;11.90;;;8.38;;
62110;SDS011;48102;47.526;19.072;2022-10-15T08:42:54;12.50;;;8.95;;
62110;SDS011;48102;47.526;19.072;2022-10-15T08:45:58;9.50;;;7.80;;
62110;SDS011;48102;47.526;19.072;2022-10-15T08:49:04;10.30;;;7.85;;
62110;SDS011;48102;47.526;19.072;2022-10-15T08:55:47;14.25;;;8.68;;
62110;SDS011;48102;47.526;19.072;2022-10-15T08:58:56;11.88;;;6.90;;
62110;SDS011;48102;47.526;19.072;2022-10-15T09:02:25;12.85;;;6.05;;
62110;SDS011;48102;47.526;19.072;2022-10-15T09:12:26;11.77;;;5.60;;
62110;SDS011;48102;47.526;19.072;2022-10-15T09:15:42;8.35;;;5.97;;
62110;SDS011;48102;47.526;19.072;2022-10-15T09:19:15;6.78;;;5.45;;
62110;SDS011;48102;47.526;19.072;2022-10-15T09:22:24;7.30;;;5.70;;
62110;SDS011;48102;47.526;19.072;2022-10-15T09:25:34;8.00;;;4.87;;
62110;SDS011;48102;47.526;19.072;2022-10-15T09:35:42;6.62;;;4.90;;
62110;SDS011;48102;47.526;19.072;2022-10-15T09:42:28;6.40;;;4.85;;
62110;SDS011;48102;47.526;19.072;2022-10-15T09:45:33;5.37;;;4.32;;
62110;SDS011;48102;47.526;19.072;2022-10-15T09:48:39;9.55;;;5.05;;
62110;SDS011;48102;47.526;19.072;2022-10-15T09:58:39;7.37;;;5.22;;
